UAL3740 KLAX-KRIV
Flight info
| Callsign | UAL3740 |
|---|---|
| Flight time | 0h 25m |
| Altitude | 9000 |
| Route | LAXX1 SLI V8 PDZ DCT |
| Aircraft | B789/H-SADE3GHIJ1J2J4J5M1P2RWXYZ/LB1D1 |
Departure
| Time | 2026-04-20 15:35 |
|---|---|
| Airport | Los Angeles International Airport (KLAX) |
Arrival
| Time | 2026-04-20 16:00 |
|---|---|
| Airport | March Air Reserve Base (KRIV) |
| Time | Latitude | Longitude | Altitude | Speed | Heading |
|---|---|---|---|---|---|
| 2026-04-20 14:35 | 33.94031 | -118.39904 | 102 ft | 0 kts | 354° |
| 2026-04-20 15:26 | 33.94017 | -118.39902 | 102 ft | 2 kts | 353° |
| 2026-04-20 15:26 | 33.93994 | -118.39902 | 101 ft | 3 kts | 20° |
| 2026-04-20 15:27 | 33.93975 | -118.39917 | 103 ft | 3 kts | 59° |
| 2026-04-20 15:27 | 33.93967 | -118.39943 | 103 ft | 2 kts | 83° |
| 2026-04-20 15:27 | 33.93967 | -118.39949 | 103 ft | 1 kts | 83° |
| 2026-04-20 15:27 | 33.93967 | -118.39950 | 102 ft | 0 kts | 83° |
| 2026-04-20 15:30 | 33.93968 | -118.39937 | 102 ft | 4 kts | 84° |
| 2026-04-20 15:30 | 33.93972 | -118.39848 | 100 ft | 12 kts | 100° |
| 2026-04-20 15:30 | 33.93939 | -118.39800 | 107 ft | 7 kts | 142° |
| 2026-04-20 15:30 | 33.93908 | -118.39712 | 108 ft | 17 kts | 91° |
| 2026-04-20 15:31 | 33.93924 | -118.39558 | 108 ft | 19 kts | 81° |
| 2026-04-20 15:31 | 33.93941 | -118.39395 | 107 ft | 20 kts | 81° |
| 2026-04-20 15:31 | 33.93960 | -118.39223 | 106 ft | 21 kts | 84° |
| 2026-04-20 15:31 | 33.93977 | -118.39049 | 107 ft | 21 kts | 83° |
| 2026-04-20 15:32 | 33.93993 | -118.38873 | 107 ft | 21 kts | 81° |
| 2026-04-20 15:32 | 33.94013 | -118.38696 | 108 ft | 21 kts | 83° |
| 2026-04-20 15:32 | 33.94029 | -118.38518 | 109 ft | 21 kts | 83° |
| 2026-04-20 15:32 | 33.94052 | -118.38342 | 108 ft | 21 kts | 81° |
| 2026-04-20 15:33 | 33.94067 | -118.38165 | 108 ft | 20 kts | 83° |
| 2026-04-20 15:33 | 33.94073 | -118.38051 | 108 ft | 7 kts | 101° |
| 2026-04-20 15:33 | 33.94048 | -118.38003 | 110 ft | 6 kts | 145° |
| 2026-04-20 15:33 | 33.94009 | -118.37998 | 112 ft | 5 kts | 194° |
| 2026-04-20 15:34 | 33.93996 | -118.38011 | 114 ft | 6 kts | 231° |
| 2026-04-20 15:34 | 33.93966 | -118.38216 | 112 ft | 56 kts | 264° |
| 2026-04-20 15:34 | 33.93888 | -118.38966 | 112 ft | 124 kts | 263° |
| 2026-04-20 15:34 | 33.93757 | -118.40226 | 211 ft | 171 kts | 261° |
| 2026-04-20 15:35 | 33.93639 | -118.41669 | 958 ft | 179 kts | 269° |
| 2026-04-20 15:35 | 33.93657 | -118.43175 | 1818 ft | 180 kts | 269° |
| 2026-04-20 15:35 | 33.93561 | -118.44700 | 2580 ft | 189 kts | 258° |
| 2026-04-20 15:35 | 33.92869 | -118.46095 | 3197 ft | 205 kts | 229° |
| 2026-04-20 15:36 | 33.91898 | -118.47458 | 3875 ft | 224 kts | 228° |
| 2026-04-20 15:36 | 33.90809 | -118.48978 | 4410 ft | 255 kts | 228° |
| 2026-04-20 15:36 | 33.89425 | -118.50371 | 5234 ft | 263 kts | 199° |
| 2026-04-20 15:36 | 33.87630 | -118.50481 | 6404 ft | 264 kts | 167° |
| 2026-04-20 15:37 | 33.85899 | -118.49667 | 7381 ft | 270 kts | 153° |
| 2026-04-20 15:37 | 33.84570 | -118.48083 | 8412 ft | 277 kts | 122° |
| 2026-04-20 15:37 | 33.83926 | -118.45829 | 9008 ft | 295 kts | 101° |
| 2026-04-20 15:37 | 33.83659 | -118.43399 | 9025 ft | 289 kts | 100° |
| 2026-04-20 15:38 | 33.83373 | -118.41012 | 9017 ft | 288 kts | 102° |
| 2026-04-20 15:38 | 33.83030 | -118.38635 | 9022 ft | 288 kts | 103° |
| 2026-04-20 15:38 | 33.82681 | -118.36259 | 9023 ft | 289 kts | 102° |
| 2026-04-20 15:38 | 33.82346 | -118.33875 | 9022 ft | 289 kts | 102° |
| 2026-04-20 15:39 | 33.82018 | -118.31493 | 9024 ft | 288 kts | 102° |
| 2026-04-20 15:39 | 33.81685 | -118.29113 | 9020 ft | 289 kts | 102° |
| 2026-04-20 15:39 | 33.81348 | -118.26740 | 9013 ft | 288 kts | 102° |
| 2026-04-20 15:39 | 33.81010 | -118.24359 | 9014 ft | 289 kts | 102° |
| 2026-04-20 15:40 | 33.80674 | -118.21977 | 9010 ft | 289 kts | 102° |
| 2026-04-20 15:40 | 33.80338 | -118.19596 | 9016 ft | 288 kts | 102° |
| 2026-04-20 15:40 | 33.80000 | -118.17220 | 9017 ft | 289 kts | 102° |
| 2026-04-20 15:40 | 33.79662 | -118.14844 | 9011 ft | 288 kts | 102° |
| 2026-04-20 15:41 | 33.79325 | -118.12466 | 9020 ft | 288 kts | 102° |
| 2026-04-20 15:41 | 33.78988 | -118.10091 | 8983 ft | 288 kts | 102° |
| 2026-04-20 15:41 | 33.78649 | -118.07713 | 8992 ft | 289 kts | 102° |
| 2026-04-20 15:41 | 33.78468 | -118.05314 | 8982 ft | 291 kts | 85° |
| 2026-04-20 15:42 | 33.78969 | -118.02944 | 8996 ft | 294 kts | 76° |
| 2026-04-20 15:42 | 33.79569 | -118.00623 | 9004 ft | 294 kts | 74° |
| 2026-04-20 15:42 | 33.80200 | -117.98281 | 9001 ft | 295 kts | 74° |
| 2026-04-20 15:42 | 33.80814 | -117.95931 | 9028 ft | 294 kts | 75° |
| 2026-04-20 15:43 | 33.81410 | -117.93601 | 9027 ft | 294 kts | 75° |
| 2026-04-20 15:43 | 33.82019 | -117.91234 | 9026 ft | 294 kts | 75° |
| 2026-04-20 15:43 | 33.82625 | -117.88891 | 9024 ft | 293 kts | 75° |
| 2026-04-20 15:43 | 33.83234 | -117.86545 | 9022 ft | 294 kts | 75° |
| 2026-04-20 15:44 | 33.83839 | -117.84200 | 9021 ft | 293 kts | 75° |
| 2026-04-20 15:44 | 33.84444 | -117.81850 | 9021 ft | 293 kts | 75° |
| 2026-04-20 15:44 | 33.85048 | -117.79505 | 9022 ft | 293 kts | 75° |
| 2026-04-20 15:44 | 33.85590 | -117.77148 | 9038 ft | 291 kts | 79° |
| 2026-04-20 15:45 | 33.86151 | -117.74797 | 9036 ft | 294 kts | 72° |
| 2026-04-20 15:45 | 33.86852 | -117.72493 | 9040 ft | 294 kts | 74° |
| 2026-04-20 15:45 | 33.87439 | -117.70143 | 9041 ft | 293 kts | 76° |
| 2026-04-20 15:45 | 33.88011 | -117.67792 | 9037 ft | 293 kts | 75° |
| 2026-04-20 15:46 | 33.88618 | -117.65449 | 9038 ft | 293 kts | 75° |
| 2026-04-20 15:46 | 33.89231 | -117.63110 | 9043 ft | 293 kts | 75° |
| 2026-04-20 15:46 | 33.89836 | -117.60774 | 9051 ft | 292 kts | 75° |
| 2026-04-20 15:46 | 33.90436 | -117.58434 | 9046 ft | 293 kts | 75° |
| 2026-04-20 15:47 | 33.91039 | -117.56084 | 9042 ft | 293 kts | 76° |
| 2026-04-20 15:47 | 33.91302 | -117.53698 | 9038 ft | 287 kts | 98° |
| 2026-04-20 15:47 | 33.90759 | -117.51447 | 9051 ft | 282 kts | 121° |
| 2026-04-20 15:47 | 33.89641 | -117.49518 | 9031 ft | 282 kts | 129° |
| 2026-04-20 15:48 | 33.88445 | -117.47650 | 9031 ft | 281 kts | 130° |
| 2026-04-20 15:48 | 33.87199 | -117.45841 | 9029 ft | 280 kts | 136° |
| 2026-04-20 15:48 | 33.85778 | -117.44243 | 8994 ft | 281 kts | 140° |
| 2026-04-20 15:48 | 33.84259 | -117.42752 | 8750 ft | 280 kts | 144° |
| 2026-04-20 15:49 | 33.82708 | -117.41352 | 8523 ft | 278 kts | 145° |
| 2026-04-20 15:49 | 33.81155 | -117.39977 | 8282 ft | 277 kts | 145° |
| 2026-04-20 15:49 | 33.79606 | -117.38613 | 8060 ft | 275 kts | 145° |
| 2026-04-20 15:49 | 33.78063 | -117.37256 | 7843 ft | 274 kts | 145° |
| 2026-04-20 15:50 | 33.76523 | -117.35903 | 7611 ft | 274 kts | 145° |
| 2026-04-20 15:50 | 33.74988 | -117.34554 | 7402 ft | 272 kts | 145° |
| 2026-04-20 15:50 | 33.73462 | -117.33214 | 7194 ft | 272 kts | 145° |
| 2026-04-20 15:50 | 33.71939 | -117.31877 | 6973 ft | 271 kts | 145° |
| 2026-04-20 15:51 | 33.70417 | -117.30542 | 6747 ft | 270 kts | 145° |
| 2026-04-20 15:51 | 33.68933 | -117.29236 | 6527 ft | 258 kts | 145° |
| 2026-04-20 15:51 | 33.67516 | -117.27991 | 6280 ft | 247 kts | 145° |
| 2026-04-20 15:51 | 33.66158 | -117.26797 | 6039 ft | 236 kts | 144° |
| 2026-04-20 15:52 | 33.65153 | -117.25274 | 5745 ft | 239 kts | 112° |
| 2026-04-20 15:52 | 33.64742 | -117.23338 | 5529 ft | 239 kts | 103° |
| 2026-04-20 15:52 | 33.64454 | -117.21391 | 5415 ft | 234 kts | 101° |
| 2026-04-20 15:53 | 33.63947 | -117.17628 | 5428 ft | 216 kts | 99° |
| 2026-04-20 15:53 | 33.64213 | -117.15878 | 5403 ft | 217 kts | 66° |
| 2026-04-20 15:53 | 33.64988 | -117.14334 | 5432 ft | 217 kts | 59° |
| 2026-04-20 15:53 | 33.65790 | -117.12838 | 5429 ft | 206 kts | 59° |
| 2026-04-20 15:54 | 33.66570 | -117.11423 | 5417 ft | 202 kts | 54° |
| 2026-04-20 15:54 | 33.67750 | -117.10612 | 5384 ft | 196 kts | 8° |
| 2026-04-20 15:54 | 33.69057 | -117.10770 | 5427 ft | 186 kts | 349° |
| 2026-04-20 15:54 | 33.70174 | -117.11481 | 5285 ft | 189 kts | 317° |
| 2026-04-20 15:55 | 33.71067 | -117.12589 | 5128 ft | 181 kts | 313° |
| 2026-04-20 15:55 | 33.71943 | -117.13662 | 5039 ft | 177 kts | 313° |
| 2026-04-20 15:55 | 33.72791 | -117.14747 | 4939 ft | 183 kts | 310° |
| 2026-04-20 15:55 | 33.73758 | -117.15734 | 4652 ft | 183 kts | 327° |
| 2026-04-20 15:56 | 33.74823 | -117.16517 | 4332 ft | 177 kts | 327° |
| 2026-04-20 15:56 | 33.75855 | -117.17265 | 3955 ft | 171 kts | 328° |
| 2026-04-20 15:56 | 33.76837 | -117.17965 | 3695 ft | 158 kts | 328° |
| 2026-04-20 15:56 | 33.77776 | -117.18627 | 3486 ft | 156 kts | 329° |
| 2026-04-20 15:57 | 33.78707 | -117.19285 | 3281 ft | 155 kts | 329° |
| 2026-04-20 15:57 | 33.79626 | -117.19945 | 3077 ft | 154 kts | 329° |
| 2026-04-20 15:57 | 33.80548 | -117.20598 | 2870 ft | 154 kts | 329° |
| 2026-04-20 15:57 | 33.81462 | -117.21252 | 2684 ft | 153 kts | 327° |
| 2026-04-20 15:58 | 33.82375 | -117.21918 | 2469 ft | 153 kts | 327° |
| 2026-04-20 15:58 | 33.83272 | -117.22555 | 2286 ft | 152 kts | 330° |
| 2026-04-20 15:58 | 33.84196 | -117.23187 | 2090 ft | 155 kts | 329° |
| 2026-04-20 15:58 | 33.85129 | -117.23850 | 1870 ft | 157 kts | 329° |
| 2026-04-20 15:59 | 33.86044 | -117.24513 | 1648 ft | 149 kts | 328° |
| 2026-04-20 15:59 | 33.86925 | -117.25136 | 1514 ft | 143 kts | 329° |
| 2026-04-20 15:59 | 33.87594 | -117.25608 | 1520 ft | 81 kts | 329° |
| 2026-04-20 15:59 | 33.88003 | -117.25899 | 1523 ft | 63 kts | 330° |
| 2026-04-20 16:00 | 33.88353 | -117.26145 | 1525 ft | 49 kts | 330° |
| 2026-04-20 16:00 | 33.88585 | -117.26309 | 1524 ft | 35 kts | 329° |
| 2026-04-20 16:00 | 33.88786 | -117.26455 | 1528 ft | 33 kts | 330° |
| 2026-04-20 16:00 | 33.88976 | -117.26589 | 1531 ft | 27 kts | 327° |
| 2026-04-20 16:01 | 33.89060 | -117.26600 | 1533 ft | 6 kts | 50° |
| 2026-04-20 16:01 | 33.89070 | -117.26558 | 1535 ft | 4 kts | 89° |
| 2026-04-20 16:01 | 33.89071 | -117.26505 | 1535 ft | 8 kts | 89° |
| 2026-04-20 16:01 | 33.89071 | -117.26421 | 1535 ft | 13 kts | 89° |
| 2026-04-20 16:02 | 33.89071 | -117.26279 | 1534 ft | 23 kts | 89° |
| 2026-04-20 16:02 | 33.89074 | -117.26036 | 1530 ft | 34 kts | 89° |
| 2026-04-20 16:02 | 33.89057 | -117.25775 | 1525 ft | 23 kts | 126° |
| 2026-04-20 16:02 | 33.88943 | -117.25635 | 1523 ft | 22 kts | 135° |
| 2026-04-20 16:03 | 33.88905 | -117.25547 | 1525 ft | 4 kts | 67° |
| 2026-04-20 16:03 | 33.88957 | -117.25484 | 1521 ft | 21 kts | 44° |
| 2026-04-20 16:03 | 33.89059 | -117.25399 | 1522 ft | 18 kts | 45° |
| 2026-04-20 16:03 | 33.89150 | -117.25294 | 1524 ft | 12 kts | 36° |
| 2026-04-20 16:04 | 33.89198 | -117.25294 | 1524 ft | 2 kts | 323° |
| 2026-04-20 16:04 | 33.89215 | -117.25317 | 1522 ft | 2 kts | 313° |